Hillsdale, Michigan
Current Conditions -  °F | °C
As of 6:54 AM on Thursday 23 Oct 2014 (Local Time) from KJYM Reporting Station
Moderate Fog Moderate Fog  
Wind Chill: 29°   Ceiling: 100
Heat Index: 29°   Visibility: 0.25mi
Dew Point: 29°   Wind: 0mph
Humidity: 100%   Direction: NA
Pressure: 30.24"   Gusts: NA
Location:  41.92°N, 84.63°W
Report Text: KJYM 231054Z AUTO 00000KT 1/4SM FZFG OVC001 M02/M02 A3024 RMK AO2 T10171017
Loading
Personal Weather Stations






























Interactive Weather Map
Tropical Storm Tracking
New forecast layout! Learn more

10-Day Weather Forecast

Advertisements
Track Severe Weather on mobile